createdAt,value
2018-09-13T09:20:05.858Z,504.00
2018-09-13T09:21:05.983Z,576.00
2018-09-13T09:22:06.205Z,568.00
2018-09-13T09:23:06.187Z,572.00
2018-09-13T09:23:30.248Z,548.00
2018-09-13T09:24:30.597Z,472.00
2018-09-13T09:25:30.448Z,468.00
2018-09-13T09:26:30.304Z,416.00
2018-09-13T09:30:14.811Z,424.00
2018-09-13T09:31:15.063Z,324.00
2018-09-13T09:32:14.754Z,488.00
2018-09-13T09:33:15.110Z,180.00
2018-09-13T09:34:15.277Z,520.00
2018-09-13T09:35:14.998Z,552.00
2018-09-13T09:36:14.980Z,576.00
2018-09-13T09:37:14.939Z,580.00
2018-09-13T09:38:14.690Z,608.00
2018-09-13T09:39:14.848Z,624.00
2018-09-13T09:40:14.860Z,612.00
2018-09-13T09:41:15.990Z,608.00
2018-09-13T09:42:14.966Z,592.00
2018-09-13T09:43:14.672Z,568.00
2018-09-13T09:44:14.868Z,464.00
2018-09-13T09:45:14.609Z,476.00
2018-09-13T09:46:15.504Z,412.00
2018-09-13T09:47:14.726Z,476.00
2018-09-13T09:48:14.859Z,552.00
2018-09-13T09:49:14.889Z,524.00
2018-09-13T09:50:14.781Z,604.00
2018-09-13T09:51:14.456Z,644.00
2018-09-13T09:52:14.467Z,712.00
2018-09-13T09:53:14.478Z,824.00
2018-09-13T09:54:14.438Z,896.00
2018-09-13T09:55:14.652Z,1004.00
2018-09-13T09:56:14.556Z,1120.00
2018-09-13T09:57:14.453Z,1252.00
2018-09-13T09:58:14.306Z,1368.00
2018-09-13T09:59:14.285Z,1388.00
2018-09-13T10:00:14.358Z,1452.00
2018-09-13T10:01:14.368Z,1608.00
2018-09-13T10:02:14.284Z,1640.00
2018-09-13T10:03:14.309Z,1664.00
2018-09-13T10:04:14.336Z,1588.00
2018-09-13T10:05:14.096Z,1468.00
2018-09-13T10:06:14.086Z,1232.00
2018-09-13T10:07:14.293Z,620.00
2018-09-13T10:08:14.124Z,564.00
2018-09-13T10:09:13.875Z,684.00
2018-09-13T10:10:14.118Z,636.00
2018-09-13T10:11:14.269Z,648.00
2018-09-13T10:12:13.738Z,728.00
2018-09-13T10:13:14.982Z,724.00
2018-09-13T10:14:13.788Z,800.00
2018-09-13T10:15:13.903Z,880.00
2018-09-13T10:16:13.292Z,1012.00
2018-09-13T10:17:13.830Z,1028.00
2018-09-13T10:18:13.526Z,1272.00
2018-09-13T10:19:13.466Z,1348.00
2018-09-13T10:20:13.605Z,1328.00
2018-09-13T10:21:13.738Z,1200.00
2018-09-13T10:22:14.572Z,1140.00
2018-09-13T10:23:13.928Z,1180.00
2018-09-13T10:24:14.022Z,1440.00
2018-09-13T10:25:13.592Z,1380.00
2018-09-13T10:26:12.827Z,1480.00
2018-09-13T10:27:13.312Z,1556.00
2018-09-13T10:28:12.714Z,1672.00
2018-09-13T11:26:42.656Z,764.00
2018-09-13T11:27:42.655Z,752.00
2018-09-13T11:28:42.044Z,724.00
2018-09-13T11:29:41.955Z,656.00
2018-09-13T11:30:42.667Z,600.00
2018-09-13T11:31:42.899Z,540.00
2018-09-13T11:32:41.082Z,444.00
2018-09-13T11:33:41.526Z,444.00
2018-09-13T11:34:41.770Z,408.00
2018-09-13T11:35:41.547Z,476.00
2018-09-13T11:36:41.267Z,464.00
2018-09-13T11:37:41.287Z,452.00
2018-09-13T11:38:43.467Z,424.00
2018-09-13T11:39:43.505Z,412.00
2018-09-13T11:40:43.528Z,384.00
2018-09-13T11:41:43.467Z,368.00
2018-09-13T11:42:41.388Z,340.00
2018-09-13T11:43:41.343Z,272.00
2018-09-13T11:44:41.618Z,344.00
2018-09-13T11:45:41.705Z,340.00
2018-09-13T11:46:41.579Z,320.00
2018-09-13T11:47:41.270Z,372.00
2018-09-13T11:48:41.497Z,384.00
2018-09-13T11:49:41.866Z,376.00
2018-09-13T11:50:41.285Z,392.00
2018-09-13T11:51:41.804Z,392.00
2018-09-13T11:52:41.721Z,400.00
2018-09-13T11:53:41.360Z,416.00
2018-09-13T11:54:41.360Z,436.00
2018-09-13T11:55:41.280Z,456.00
2018-09-13T11:56:41.334Z,452.00
2018-09-13T11:57:41.397Z,260.00
2018-09-13T11:58:41.297Z,452.00
2018-09-13T11:59:42.370Z,456.00
2018-09-13T12:00:41.273Z,460.00
2018-09-13T12:01:40.878Z,420.00
2018-09-13T12:02:41.277Z,500.00
2018-09-13T12:03:41.141Z,588.00
2018-09-13T12:04:41.169Z,568.00
2018-09-13T12:05:41.251Z,560.00
2018-09-13T12:06:41.158Z,640.00
2018-09-13T12:07:41.263Z,856.00
2018-09-13T12:08:40.120Z,804.00
2018-09-13T12:09:41.093Z,912.00
2018-09-13T12:10:41.118Z,872.00
2018-09-13T12:11:40.990Z,1184.00
2018-09-13T12:12:40.003Z,1364.00
2018-09-13T12:13:41.150Z,1432.00
2018-09-13T12:14:41.004Z,1580.00
2018-09-13T12:15:42.165Z,1468.00
2018-09-13T12:16:40.856Z,1612.00
2018-09-13T12:17:40.876Z,1328.00
2018-09-13T12:18:40.814Z,1976.00
2018-09-13T12:19:40.797Z,2012.00
2018-09-13T12:20:40.879Z,2128.00
2018-09-13T12:21:41.837Z,2512.00
2018-09-13T12:22:39.837Z,2224.00
2018-09-13T12:23:40.800Z,2748.00
2018-09-13T12:24:40.397Z,2680.00
2018-09-13T12:25:39.683Z,2684.00
2018-09-13T12:26:40.577Z,2464.00
2018-09-13T12:27:39.728Z,2332.00
2018-09-13T12:28:40.178Z,2268.00
2018-09-13T12:29:40.166Z,2528.00
2018-09-13T12:30:40.551Z,2404.00
2018-09-13T12:31:39.510Z,1908.00
2018-09-13T12:32:40.022Z,1944.00
2018-09-13T12:33:39.758Z,1632.00
2018-09-13T12:34:40.035Z,2196.00
2018-09-13T12:35:39.991Z,2108.00
2018-09-13T12:36:39.908Z,2232.00
2018-09-13T12:37:39.939Z,1648.00
2018-09-13T12:38:40.558Z,1376.00
2018-09-13T12:39:40.091Z,1500.00
2018-09-13T12:40:40.070Z,1156.00
2018-09-13T12:41:40.204Z,1732.00
2018-09-13T12:42:39.260Z,1664.00
2018-09-13T12:43:40.092Z,876.00
2018-09-13T12:44:40.497Z,860.00
2018-09-13T12:45:40.289Z,992.00
2018-09-13T12:48:26.291Z,1048.00
2018-09-13T12:49:27.377Z,904.00
2018-09-13T13:05:17.164Z,688.00
2018-09-13T13:06:17.381Z,760.00
2018-09-13T13:07:18.056Z,720.00
2018-09-13T13:08:17.136Z,656.00
2018-09-13T13:09:17.373Z,764.00
2018-09-13T13:10:17.415Z,704.00
2018-09-13T13:11:18.428Z,696.00
2018-09-13T13:12:17.267Z,668.00
2018-09-13T13:13:17.624Z,640.00
2018-09-13T13:14:17.285Z,336.00
2018-09-13T13:15:16.002Z,616.00
2018-09-13T13:16:17.032Z,304.00
2018-09-13T13:17:16.730Z,548.00
2018-09-13T13:18:16.930Z,632.00
2018-09-13T13:19:16.635Z,644.00
2018-09-13T13:20:16.590Z,512.00
2018-09-13T13:21:16.406Z,496.00
2018-09-13T13:22:16.699Z,488.00
2018-09-13T13:23:16.606Z,468.00
2018-09-13T13:24:16.668Z,396.00
2018-09-13T13:25:16.277Z,392.00
2018-09-13T13:26:16.662Z,404.00
2018-09-13T13:27:16.633Z,408.00
2018-09-13T13:28:16.576Z,460.00
2018-09-13T13:29:16.704Z,492.00
2018-09-13T13:30:16.555Z,500.00
2018-09-13T13:31:16.507Z,496.00
2018-09-13T13:32:16.368Z,508.00
2018-09-13T13:33:16.357Z,528.00
2018-09-13T13:34:16.420Z,540.00
2018-09-13T13:35:16.514Z,512.00
2018-09-13T13:36:15.303Z,508.00
2018-09-13T13:37:16.220Z,480.00
2018-09-13T13:38:16.168Z,492.00
2018-09-13T13:39:16.170Z,456.00
2018-09-13T13:40:16.206Z,448.00
2018-09-13T13:41:16.504Z,444.00
2018-09-13T13:42:16.045Z,412.00
2018-09-13T13:43:16.046Z,444.00
2018-09-13T13:44:16.066Z,448.00
2018-09-13T13:45:16.021Z,336.00
2018-09-13T13:46:16.066Z,196.00
2018-09-13T13:47:16.226Z,424.00
2018-09-13T13:48:15.874Z,440.00
2018-09-13T13:49:15.595Z,412.00
2018-09-13T13:50:15.953Z,356.00
2018-09-13T13:51:15.806Z,356.00
2018-09-13T13:52:15.746Z,340.00
2018-09-13T13:53:15.868Z,348.00
2018-09-13T13:54:15.758Z,336.00
2018-09-13T13:55:15.802Z,472.00
2018-09-13T13:56:15.553Z,448.00
2018-09-13T13:57:15.688Z,424.00
2018-09-13T13:58:15.646Z,432.00
2018-09-13T13:59:15.690Z,392.00
2018-09-13T14:00:15.613Z,412.00
2018-09-13T14:01:15.391Z,400.00
2018-09-13T14:02:15.446Z,384.00
2018-09-13T14:03:15.481Z,384.00
2018-09-13T14:04:15.378Z,392.00
2018-09-13T14:05:15.080Z,400.00
2018-09-13T14:06:15.205Z,392.00
2018-09-13T14:07:15.228Z,396.00
2018-09-13T14:08:15.275Z,380.00
2018-09-13T14:09:15.217Z,372.00
2018-09-13T14:10:15.358Z,360.00
2018-09-13T14:11:15.210Z,344.00
2018-09-13T14:12:15.050Z,320.00
2018-09-13T14:13:15.170Z,300.00
2018-09-13T14:14:15.068Z,292.00
2018-09-13T14:15:14.888Z,288.00
2018-09-13T14:16:14.978Z,276.00
2018-09-13T14:17:15.078Z,272.00
2018-09-13T14:18:14.908Z,280.00
2018-09-13T14:19:14.760Z,264.00
2018-09-13T14:20:14.851Z,268.00
2018-09-13T14:21:14.796Z,264.00
2018-09-13T14:24:14.625Z,248.00
